sensor_id;sensor_type;location;lat;lon;timestamp;P1;durP1;ratioP1;P2;durP2;ratioP2
69714;SDS011;56981;53.532;49.398;2023-05-15T00:00:14;8.95;;;6.47;;
69714;SDS011;56981;53.532;49.398;2023-05-15T00:02:41;9.18;;;6.05;;
69714;SDS011;56981;53.532;49.398;2023-05-15T00:05:09;7.40;;;5.28;;
69714;SDS011;56981;53.532;49.398;2023-05-15T00:07:36;11.55;;;5.40;;
69714;SDS011;56981;53.532;49.398;2023-05-15T00:10:03;5.97;;;4.75;;
69714;SDS011;56981;53.532;49.398;2023-05-15T00:12:29;7.60;;;5.30;;
69714;SDS011;56981;53.532;49.398;2023-05-15T00:14:55;8.43;;;5.25;;
69714;SDS011;56981;53.532;49.398;2023-05-15T00:17:21;10.43;;;5.53;;
69714;SDS011;56981;53.532;49.398;2023-05-15T00:19:48;8.18;;;5.32;;
69714;SDS011;56981;53.532;49.398;2023-05-15T00:22:14;9.45;;;6.40;;
69714;SDS011;56981;53.532;49.398;2023-05-15T00:24:40;10.80;;;6.47;;
69714;SDS011;56981;53.532;49.398;2023-05-15T00:27:06;11.27;;;6.68;;
69714;SDS011;56981;53.532;49.398;2023-05-15T00:29:32;10.70;;;6.75;;
69714;SDS011;56981;53.532;49.398;2023-05-15T00:31:58;10.85;;;6.35;;
69714;SDS011;56981;53.532;49.398;2023-05-15T00:34:24;10.55;;;6.60;;
69714;SDS011;56981;53.532;49.398;2023-05-15T00:36:50;11.45;;;6.68;;
69714;SDS011;56981;53.532;49.398;2023-05-15T00:39:16;11.88;;;6.80;;
69714;SDS011;56981;53.532;49.398;2023-05-15T00:41:43;11.02;;;7.00;;
69714;SDS011;56981;53.532;49.398;2023-05-15T00:44:10;9.57;;;6.03;;
69714;SDS011;56981;53.532;49.398;2023-05-15T00:46:37;10.00;;;6.20;;
69714;SDS011;56981;53.532;49.398;2023-05-15T00:49:04;12.25;;;6.63;;
69714;SDS011;56981;53.532;49.398;2023-05-15T00:51:31;11.05;;;5.95;;
69714;SDS011;56981;53.532;49.398;2023-05-15T00:53:57;10.13;;;6.25;;
69714;SDS011;56981;53.532;49.398;2023-05-15T00:56:24;8.55;;;5.55;;
69714;SDS011;56981;53.532;49.398;2023-05-15T00:58:52;10.38;;;5.88;;
69714;SDS011;56981;53.532;49.398;2023-05-15T01:01:20;10.02;;;5.93;;
69714;SDS011;56981;53.532;49.398;2023-05-15T01:03:46;8.25;;;5.70;;
69714;SDS011;56981;53.532;49.398;2023-05-15T01:06:12;9.48;;;6.25;;
69714;SDS011;56981;53.532;49.398;2023-05-15T01:08:42;10.07;;;6.30;;
69714;SDS011;56981;53.532;49.398;2023-05-15T01:11:12;10.50;;;7.22;;
69714;SDS011;56981;53.532;49.398;2023-05-15T01:13:39;10.05;;;6.45;;
69714;SDS011;56981;53.532;49.398;2023-05-15T01:16:06;9.43;;;6.40;;
69714;SDS011;56981;53.532;49.398;2023-05-15T01:18:33;10.77;;;6.53;;
69714;SDS011;56981;53.532;49.398;2023-05-15T01:29:00;7.35;;;5.22;;
69714;SDS011;56981;53.532;49.398;2023-05-15T01:31:44;8.40;;;4.95;;
69714;SDS011;56981;53.532;49.398;2023-05-15T01:34:19;7.40;;;4.95;;
69714;SDS011;56981;53.532;49.398;2023-05-15T01:36:52;5.75;;;4.00;;
69714;SDS011;56981;53.532;49.398;2023-05-15T01:39:25;7.53;;;4.45;;
69714;SDS011;56981;53.532;49.398;2023-05-15T01:44:26;5.13;;;3.80;;
69714;SDS011;56981;53.532;49.398;2023-05-15T01:46:56;11.70;;;4.35;;
69714;SDS011;56981;53.532;49.398;2023-05-15T01:49:25;4.85;;;4.05;;
69714;SDS011;56981;53.532;49.398;2023-05-15T01:52:00;4.88;;;4.00;;
69714;SDS011;56981;53.532;49.398;2023-05-15T01:54:33;4.80;;;3.60;;
69714;SDS011;56981;53.532;49.398;2023-05-15T01:57:00;5.60;;;4.15;;
69714;SDS011;56981;53.532;49.398;2023-05-15T01:59:27;4.70;;;3.60;;
69714;SDS011;56981;53.532;49.398;2023-05-15T02:01:55;6.13;;;4.25;;
69714;SDS011;56981;53.532;49.398;2023-05-15T02:04:23;5.00;;;3.80;;
69714;SDS011;56981;53.532;49.398;2023-05-15T02:06:50;6.32;;;4.18;;
69714;SDS011;56981;53.532;49.398;2023-05-15T02:09:18;5.22;;;4.05;;
69714;SDS011;56981;53.532;49.398;2023-05-15T02:11:48;4.43;;;3.65;;
69714;SDS011;56981;53.532;49.398;2023-05-15T02:14:15;5.93;;;3.90;;
69714;SDS011;56981;53.532;49.398;2023-05-15T02:16:42;5.07;;;4.10;;
69714;SDS011;56981;53.532;49.398;2023-05-15T02:19:08;4.72;;;3.42;;
69714;SDS011;56981;53.532;49.398;2023-05-15T02:21:34;4.30;;;3.75;;
69714;SDS011;56981;53.532;49.398;2023-05-15T02:24:00;4.95;;;3.90;;
69714;SDS011;56981;53.532;49.398;2023-05-15T02:26:35;4.38;;;3.67;;
69714;SDS011;56981;53.532;49.398;2023-05-15T02:29:21;3.95;;;3.28;;
69714;SDS011;56981;53.532;49.398;2023-05-15T02:34:51;4.63;;;3.67;;
69714;SDS011;56981;53.532;49.398;2023-05-15T02:37:26;3.67;;;3.38;;
69714;SDS011;56981;53.532;49.398;2023-05-15T02:39:55;3.92;;;3.47;;
69714;SDS011;56981;53.532;49.398;2023-05-15T02:42:25;5.93;;;3.42;;
69714;SDS011;56981;53.532;49.398;2023-05-15T02:44:53;3.63;;;2.63;;
69714;SDS011;56981;53.532;49.398;2023-05-15T02:47:20;3.22;;;2.33;;
69714;SDS011;56981;53.532;49.398;2023-05-15T02:49:48;3.03;;;2.58;;
69714;SDS011;56981;53.532;49.398;2023-05-15T02:52:15;8.13;;;2.90;;
69714;SDS011;56981;53.532;49.398;2023-05-15T02:54:41;2.30;;;2.13;;
69714;SDS011;56981;53.532;49.398;2023-05-15T02:57:07;3.83;;;2.58;;
69714;SDS011;56981;53.532;49.398;2023-05-15T02:59:34;3.28;;;2.15;;
69714;SDS011;56981;53.532;49.398;2023-05-15T03:02:00;2.47;;;2.28;;
69714;SDS011;56981;53.532;49.398;2023-05-15T03:04:28;3.47;;;2.10;;
69714;SDS011;56981;53.532;49.398;2023-05-15T03:06:54;2.90;;;2.67;;
69714;SDS011;56981;53.532;49.398;2023-05-15T03:09:20;3.30;;;2.22;;
69714;SDS011;56981;53.532;49.398;2023-05-15T03:11:46;2.50;;;2.30;;
69714;SDS011;56981;53.532;49.398;2023-05-15T03:14:12;2.20;;;2.00;;
69714;SDS011;56981;53.532;49.398;2023-05-15T03:16:39;2.92;;;1.98;;
69714;SDS011;56981;53.532;49.398;2023-05-15T03:19:05;1.98;;;1.80;;
69714;SDS011;56981;53.532;49.398;2023-05-15T03:21:31;2.17;;;1.98;;
69714;SDS011;56981;53.532;49.398;2023-05-15T03:23:57;3.00;;;2.20;;
69714;SDS011;56981;53.532;49.398;2023-05-15T03:26:25;1.70;;;1.60;;
69714;SDS011;56981;53.532;49.398;2023-05-15T03:28:51;4.22;;;1.70;;
69714;SDS011;56981;53.532;49.398;2023-05-15T03:31:18;1.50;;;1.40;;
69714;SDS011;56981;53.532;49.398;2023-05-15T03:33:45;2.95;;;1.63;;
69714;SDS011;56981;53.532;49.398;2023-05-15T03:36:14;2.60;;;1.77;;
69714;SDS011;56981;53.532;49.398;2023-05-15T03:38:40;1.83;;;1.73;;
69714;SDS011;56981;53.532;49.398;2023-05-15T03:41:11;1.52;;;1.23;;
69714;SDS011;56981;53.532;49.398;2023-05-15T03:43:37;6.93;;;1.92;;
69714;SDS011;56981;53.532;49.398;2023-05-15T03:46:03;2.35;;;1.27;;
69714;SDS011;56981;53.532;49.398;2023-05-15T03:48:30;2.78;;;1.40;;
69714;SDS011;56981;53.532;49.398;2023-05-15T03:50:56;1.55;;;1.30;;
69714;SDS011;56981;53.532;49.398;2023-05-15T03:53:22;1.40;;;1.30;;
69714;SDS011;56981;53.532;49.398;2023-05-15T03:55:48;1.92;;;1.20;;
69714;SDS011;56981;53.532;49.398;2023-05-15T03:58:14;2.35;;;1.08;;
69714;SDS011;56981;53.532;49.398;2023-05-15T04:00:41;1.08;;;1.00;;
69714;SDS011;56981;53.532;49.398;2023-05-15T04:03:07;2.92;;;0.80;;
69714;SDS011;56981;53.532;49.398;2023-05-15T04:05:33;1.83;;;0.80;;
69714;SDS011;56981;53.532;49.398;2023-05-15T04:07:59;1.33;;;0.95;;
69714;SDS011;56981;53.532;49.398;2023-05-15T04:10:25;0.88;;;0.88;;
69714;SDS011;56981;53.532;49.398;2023-05-15T04:12:51;2.45;;;1.10;;
69714;SDS011;56981;53.532;49.398;2023-05-15T04:15:18;2.95;;;1.10;;
69714;SDS011;56981;53.532;49.398;2023-05-15T04:17:46;1.77;;;1.00;;
69714;SDS011;56981;53.532;49.398;2023-05-15T04:20:14;1.17;;;1.00;;
69714;SDS011;56981;53.532;49.398;2023-05-15T04:22:42;1.20;;;1.00;;
69714;SDS011;56981;53.532;49.398;2023-05-15T04:25:09;2.47;;;1.30;;
69714;SDS011;56981;53.532;49.398;2023-05-15T04:27:36;1.73;;;1.00;;
69714;SDS011;56981;53.532;49.398;2023-05-15T04:30:03;2.10;;;1.00;;
69714;SDS011;56981;53.532;49.398;2023-05-15T04:32:30;1.98;;;0.98;;
69714;SDS011;56981;53.532;49.398;2023-05-15T04:35:01;3.25;;;1.52;;
69714;SDS011;56981;53.532;49.398;2023-05-15T04:37:40;4.35;;;1.30;;
69714;SDS011;56981;53.532;49.398;2023-05-15T04:40:07;1.77;;;1.15;;
69714;SDS011;56981;53.532;49.398;2023-05-15T04:42:34;1.02;;;0.93;;
69714;SDS011;56981;53.532;49.398;2023-05-15T04:45:01;1.77;;;1.10;;
69714;SDS011;56981;53.532;49.398;2023-05-15T04:47:28;1.83;;;1.17;;
69714;SDS011;56981;53.532;49.398;2023-05-15T04:49:54;2.45;;;1.10;;
69714;SDS011;56981;53.532;49.398;2023-05-15T04:52:20;1.40;;;0.90;;
69714;SDS011;56981;53.532;49.398;2023-05-15T04:54:46;1.33;;;1.20;;
69714;SDS011;56981;53.532;49.398;2023-05-15T04:57:15;1.15;;;1.10;;
69714;SDS011;56981;53.532;49.398;2023-05-15T04:59:41;1.52;;;0.95;;
69714;SDS011;56981;53.532;49.398;2023-05-15T05:02:08;1.92;;;0.98;;
69714;SDS011;56981;53.532;49.398;2023-05-15T05:04:35;0.80;;;0.80;;
69714;SDS011;56981;53.532;49.398;2023-05-15T05:07:01;2.33;;;1.35;;
69714;SDS011;56981;53.532;49.398;2023-05-15T05:09:30;1.63;;;1.30;;
69714;SDS011;56981;53.532;49.398;2023-05-15T05:11:59;2.13;;;1.05;;
69714;SDS011;56981;53.532;49.398;2023-05-15T05:14:26;1.27;;;0.98;;
69714;SDS011;56981;53.532;49.398;2023-05-15T05:16:52;2.42;;;1.00;;
69714;SDS011;56981;53.532;49.398;2023-05-15T05:19:18;1.48;;;1.30;;
69714;SDS011;56981;53.532;49.398;2023-05-15T05:21:44;5.47;;;1.30;;
69714;SDS011;56981;53.532;49.398;2023-05-15T05:24:10;3.00;;;1.23;;
69714;SDS011;56981;53.532;49.398;2023-05-15T05:26:36;0.98;;;0.98;;
69714;SDS011;56981;53.532;49.398;2023-05-15T05:29:02;3.17;;;1.17;;
69714;SDS011;56981;53.532;49.398;2023-05-15T05:31:28;1.35;;;1.25;;
69714;SDS011;56981;53.532;49.398;2023-05-15T05:33:54;2.85;;;1.33;;
69714;SDS011;56981;53.532;49.398;2023-05-15T05:36:20;1.10;;;1.00;;
69714;SDS011;56981;53.532;49.398;2023-05-15T05:38:47;5.00;;;1.30;;
69714;SDS011;56981;53.532;49.398;2023-05-15T05:41:13;2.17;;;1.25;;
69714;SDS011;56981;53.532;49.398;2023-05-15T05:43:39;2.97;;;1.40;;
69714;SDS011;56981;53.532;49.398;2023-05-15T05:46:05;2.25;;;1.67;;
69714;SDS011;56981;53.532;49.398;2023-05-15T05:48:31;1.27;;;1.17;;
69714;SDS011;56981;53.532;49.398;2023-05-15T05:50:57;2.53;;;1.00;;
69714;SDS011;56981;53.532;49.398;2023-05-15T05:53:23;1.27;;;1.02;;
69714;SDS011;56981;53.532;49.398;2023-05-15T05:55:49;1.45;;;0.88;;
69714;SDS011;56981;53.532;49.398;2023-05-15T05:58:16;3.80;;;1.60;;
69714;SDS011;56981;53.532;49.398;2023-05-15T06:00:43;1.63;;;0.80;;
69714;SDS011;56981;53.532;49.398;2023-05-15T06:03:09;0.90;;;0.85;;
69714;SDS011;56981;53.532;49.398;2023-05-15T06:05:35;0.77;;;0.73;;
69714;SDS011;56981;53.532;49.398;2023-05-15T06:08:02;0.90;;;0.63;;
69714;SDS011;56981;53.532;49.398;2023-05-15T06:10:29;4.93;;;1.13;;
69714;SDS011;56981;53.532;49.398;2023-05-15T06:12:55;0.82;;;0.68;;
69714;SDS011;56981;53.532;49.398;2023-05-15T06:15:21;2.13;;;1.00;;
69714;SDS011;56981;53.532;49.398;2023-05-15T06:17:47;1.83;;;0.70;;
69714;SDS011;56981;53.532;49.398;2023-05-15T06:20:14;2.20;;;0.80;;
69714;SDS011;56981;53.532;49.398;2023-05-15T06:22:40;2.25;;;0.80;;
69714;SDS011;56981;53.532;49.398;2023-05-15T06:25:06;2.05;;;0.65;;
69714;SDS011;56981;53.532;49.398;2023-05-15T06:27:35;3.13;;;0.75;;
69714;SDS011;56981;53.532;49.398;2023-05-15T06:30:01;7.32;;;1.33;;
69714;SDS011;56981;53.532;49.398;2023-05-15T06:32:28;6.90;;;1.30;;
69714;SDS011;56981;53.532;49.398;2023-05-15T06:34:55;1.95;;;0.73;;
69714;SDS011;56981;53.532;49.398;2023-05-15T06:37:21;2.08;;;0.82;;
69714;SDS011;56981;53.532;49.398;2023-05-15T06:39:47;4.28;;;1.02;;
69714;SDS011;56981;53.532;49.398;2023-05-15T06:42:13;1.05;;;0.60;;
69714;SDS011;56981;53.532;49.398;2023-05-15T06:44:39;6.43;;;1.30;;
69714;SDS011;56981;53.532;49.398;2023-05-15T06:47:05;3.25;;;0.82;;
69714;SDS011;56981;53.532;49.398;2023-05-15T06:49:31;1.38;;;0.98;;
69714;SDS011;56981;53.532;49.398;2023-05-15T06:51:57;6.80;;;1.67;;
69714;SDS011;56981;53.532;49.398;2023-05-15T06:54:24;2.70;;;0.80;;
69714;SDS011;56981;53.532;49.398;2023-05-15T06:56:50;1.25;;;0.60;;
69714;SDS011;56981;53.532;49.398;2023-05-15T06:59:16;1.05;;;0.60;;
69714;SDS011;56981;53.532;49.398;2023-05-15T07:01:42;2.20;;;1.30;;
69714;SDS011;56981;53.532;49.398;2023-05-15T07:04:08;3.47;;;0.90;;
69714;SDS011;56981;53.532;49.398;2023-05-15T07:06:34;1.77;;;0.80;;
69714;SDS011;56981;53.532;49.398;2023-05-15T07:09:02;1.90;;;0.77;;
69714;SDS011;56981;53.532;49.398;2023-05-15T07:11:28;0.93;;;0.80;;
69714;SDS011;56981;53.532;49.398;2023-05-15T07:13:55;1.63;;;0.63;;
69714;SDS011;56981;53.532;49.398;2023-05-15T07:16:21;2.72;;;1.08;;
69714;SDS011;56981;53.532;49.398;2023-05-15T07:18:47;1.85;;;0.93;;
69714;SDS011;56981;53.532;49.398;2023-05-15T07:21:13;0.85;;;0.65;;
69714;SDS011;56981;53.532;49.398;2023-05-15T07:23:39;3.80;;;1.48;;
69714;SDS011;56981;53.532;49.398;2023-05-15T07:26:05;2.28;;;2.08;;
69714;SDS011;56981;53.532;49.398;2023-05-15T07:28:32;1.20;;;0.98;;
69714;SDS011;56981;53.532;49.398;2023-05-15T07:30:58;3.45;;;1.08;;
69714;SDS011;56981;53.532;49.398;2023-05-15T07:33:24;2.03;;;1.33;;
69714;SDS011;56981;53.532;49.398;2023-05-15T07:35:50;2.95;;;1.25;;
69714;SDS011;56981;53.532;49.398;2023-05-15T07:38:16;5.68;;;2.33;;
69714;SDS011;56981;53.532;49.398;2023-05-15T07:40:42;5.38;;;1.92;;
69714;SDS011;56981;53.532;49.398;2023-05-15T07:43:08;1.50;;;0.90;;
69714;SDS011;56981;53.532;49.398;2023-05-15T07:45:35;1.55;;;0.82;;
69714;SDS011;56981;53.532;49.398;2023-05-15T07:48:11;3.15;;;1.20;;
69714;SDS011;56981;53.532;49.398;2023-05-15T07:50:38;4.63;;;3.05;;
69714;SDS011;56981;53.532;49.398;2023-05-15T07:53:04;2.25;;;1.10;;
69714;SDS011;56981;53.532;49.398;2023-05-15T07:55:30;1.30;;;1.20;;
69714;SDS011;56981;53.532;49.398;2023-05-15T07:57:57;1.20;;;1.10;;
69714;SDS011;56981;53.532;49.398;2023-05-15T08:00:23;12.10;;;3.47;;
69714;SDS011;56981;53.532;49.398;2023-05-15T08:02:49;2.05;;;1.42;;
69714;SDS011;56981;53.532;49.398;2023-05-15T08:05:15;1.20;;;0.80;;
69714;SDS011;56981;53.532;49.398;2023-05-15T08:07:41;6.50;;;1.60;;
69714;SDS011;56981;53.532;49.398;2023-05-15T08:10:07;0.70;;;0.70;;
69714;SDS011;56981;53.532;49.398;2023-05-15T08:12:35;2.70;;;0.70;;
69714;SDS011;56981;53.532;49.398;2023-05-15T08:15:01;1.92;;;0.85;;
69714;SDS011;56981;53.532;49.398;2023-05-15T08:17:27;8.10;;;3.95;;
69714;SDS011;56981;53.532;49.398;2023-05-15T08:19:54;1.98;;;1.45;;
69714;SDS011;56981;53.532;49.398;2023-05-15T08:22:20;2.65;;;0.80;;
69714;SDS011;56981;53.532;49.398;2023-05-15T08:24:46;2.70;;;1.10;;
69714;SDS011;56981;53.532;49.398;2023-05-15T08:27:13;2.47;;;0.98;;
69714;SDS011;56981;53.532;49.398;2023-05-15T08:29:39;7.57;;;3.88;;
69714;SDS011;56981;53.532;49.398;2023-05-15T08:32:08;2.80;;;1.30;;
69714;SDS011;56981;53.532;49.398;2023-05-15T08:34:35;4.13;;;1.50;;
69714;SDS011;56981;53.532;49.398;2023-05-15T08:37:01;5.97;;;2.42;;
69714;SDS011;56981;53.532;49.398;2023-05-15T08:39:29;1.20;;;1.10;;
69714;SDS011;56981;53.532;49.398;2023-05-15T08:41:56;2.97;;;1.08;;
69714;SDS011;56981;53.532;49.398;2023-05-15T08:44:23;2.03;;;1.23;;
69714;SDS011;56981;53.532;49.398;2023-05-15T08:46:49;3.70;;;1.05;;
69714;SDS011;56981;53.532;49.398;2023-05-15T08:49:19;1.52;;;1.10;;
69714;SDS011;56981;53.532;49.398;2023-05-15T08:51:47;1.17;;;1.00;;
69714;SDS011;56981;53.532;49.398;2023-05-15T08:54:14;3.75;;;1.27;;
69714;SDS011;56981;53.532;49.398;2023-05-15T08:56:41;2.25;;;1.17;;
69714;SDS011;56981;53.532;49.398;2023-05-15T08:59:07;4.35;;;1.38;;
69714;SDS011;56981;53.532;49.398;2023-05-15T09:01:33;4.07;;;1.45;;
69714;SDS011;56981;53.532;49.398;2023-05-15T09:04:01;2.53;;;1.10;;
69714;SDS011;56981;53.532;49.398;2023-05-15T09:06:27;22.40;;;3.85;;
69714;SDS011;56981;53.532;49.398;2023-05-15T09:08:54;13.10;;;2.40;;
69714;SDS011;56981;53.532;49.398;2023-05-15T09:11:22;2.60;;;2.38;;
69714;SDS011;56981;53.532;49.398;2023-05-15T09:13:49;7.82;;;2.13;;
69714;SDS011;56981;53.532;49.398;2023-05-15T09:16:15;2.47;;;1.10;;
69714;SDS011;56981;53.532;49.398;2023-05-15T09:18:41;4.90;;;1.95;;
69714;SDS011;56981;53.532;49.398;2023-05-15T09:21:23;3.15;;;1.50;;
69714;SDS011;56981;53.532;49.398;2023-05-15T09:27:04;3.97;;;1.58;;
69714;SDS011;56981;53.532;49.398;2023-05-15T09:29:37;4.25;;;2.17;;
69714;SDS011;56981;53.532;49.398;2023-05-15T09:32:10;14.10;;;2.95;;
69714;SDS011;56981;53.532;49.398;2023-05-15T09:34:45;5.38;;;1.83;;
69714;SDS011;56981;53.532;49.398;2023-05-15T09:37:29;2.45;;;2.00;;
69714;SDS011;56981;53.532;49.398;2023-05-15T09:40:08;2.63;;;2.15;;
69714;SDS011;56981;53.532;49.398;2023-05-15T09:42:40;3.42;;;2.40;;
69714;SDS011;56981;53.532;49.398;2023-05-15T09:45:18;2.03;;;1.90;;
69714;SDS011;56981;53.532;49.398;2023-05-15T09:47:50;4.22;;;2.35;;
69714;SDS011;56981;53.532;49.398;2023-05-15T09:50:24;4.88;;;2.70;;
69714;SDS011;56981;53.532;49.398;2023-05-15T09:53:03;5.72;;;3.53;;
69714;SDS011;56981;53.532;49.398;2023-05-15T09:55:35;2.45;;;2.17;;
69714;SDS011;56981;53.532;49.398;2023-05-15T09:58:10;2.65;;;2.00;;
69714;SDS011;56981;53.532;49.398;2023-05-15T10:00:46;5.75;;;2.17;;
69714;SDS011;56981;53.532;49.398;2023-05-15T10:03:17;2.25;;;2.05;;
69714;SDS011;56981;53.532;49.398;2023-05-15T10:05:51;2.35;;;2.20;;
69714;SDS011;56981;53.532;49.398;2023-05-15T10:08:30;2.25;;;1.98;;
69714;SDS011;56981;53.532;49.398;2023-05-15T10:11:01;3.78;;;2.47;;
69714;SDS011;56981;53.532;49.398;2023-05-15T10:13:33;3.35;;;2.30;;
69714;SDS011;56981;53.532;49.398;2023-05-15T10:16:06;7.18;;;2.75;;
69714;SDS011;56981;53.532;49.398;2023-05-15T10:18:38;6.57;;;2.47;;
69714;SDS011;56981;53.532;49.398;2023-05-15T10:21:10;10.32;;;3.03;;
69714;SDS011;56981;53.532;49.398;2023-05-15T10:23:43;3.85;;;2.38;;
69714;SDS011;56981;53.532;49.398;2023-05-15T10:26:19;2.33;;;2.13;;
69714;SDS011;56981;53.532;49.398;2023-05-15T10:28:54;4.10;;;2.83;;
69714;SDS011;56981;53.532;49.398;2023-05-15T10:31:27;2.35;;;2.15;;
69714;SDS011;56981;53.532;49.398;2023-05-15T10:34:00;24.45;;;3.67;;
69714;SDS011;56981;53.532;49.398;2023-05-15T10:36:32;4.95;;;2.80;;
69714;SDS011;56981;53.532;49.398;2023-05-15T10:39:05;2.72;;;2.22;;
69714;SDS011;56981;53.532;49.398;2023-05-15T10:41:38;2.33;;;2.20;;
69714;SDS011;56981;53.532;49.398;2023-05-15T10:44:10;7.65;;;2.60;;
69714;SDS011;56981;53.532;49.398;2023-05-15T10:46:42;7.05;;;2.72;;
69714;SDS011;56981;53.532;49.398;2023-05-15T10:49:14;4.03;;;2.70;;
69714;SDS011;56981;53.532;49.398;2023-05-15T10:51:46;2.50;;;2.15;;
69714;SDS011;56981;53.532;49.398;2023-05-15T10:54:17;2.97;;;2.22;;
69714;SDS011;56981;53.532;49.398;2023-05-15T10:56:49;6.40;;;3.13;;
69714;SDS011;56981;53.532;49.398;2023-05-15T10:59:20;6.72;;;2.80;;
69714;SDS011;56981;53.532;49.398;2023-05-15T11:04:55;3.78;;;2.33;;
69714;SDS011;56981;53.532;49.398;2023-05-15T11:07:31;14.80;;;3.58;;
69714;SDS011;56981;53.532;49.398;2023-05-15T11:10:09;5.40;;;2.70;;
69714;SDS011;56981;53.532;49.398;2023-05-15T11:13:00;4.22;;;2.60;;
69714;SDS011;56981;53.532;49.398;2023-05-15T11:15:41;10.80;;;3.63;;
69714;SDS011;56981;53.532;49.398;2023-05-15T11:18:14;21.85;;;9.02;;
69714;SDS011;56981;53.532;49.398;2023-05-15T11:23:21;3.40;;;3.10;;
69714;SDS011;56981;53.532;49.398;2023-05-15T11:25:56;6.68;;;3.78;;
69714;SDS011;56981;53.532;49.398;2023-05-15T11:28:28;3.17;;;2.78;;
69714;SDS011;56981;53.532;49.398;2023-05-15T11:31:02;3.67;;;3.17;;
69714;SDS011;56981;53.532;49.398;2023-05-15T11:33:37;3.88;;;2.92;;
69714;SDS011;56981;53.532;49.398;2023-05-15T11:36:09;9.00;;;4.13;;
69714;SDS011;56981;53.532;49.398;2023-05-15T11:38:41;4.18;;;3.42;;
69714;SDS011;56981;53.532;49.398;2023-05-15T11:41:17;3.92;;;2.25;;
69714;SDS011;56981;53.532;49.398;2023-05-15T11:46:20;3.65;;;3.00;;
69714;SDS011;56981;53.532;49.398;2023-05-15T11:48:53;3.53;;;2.35;;
69714;SDS011;56981;53.532;49.398;2023-05-15T11:51:25;3.63;;;2.80;;
69714;SDS011;56981;53.532;49.398;2023-05-15T11:53:57;6.05;;;3.00;;
69714;SDS011;56981;53.532;49.398;2023-05-15T11:56:30;3.88;;;2.60;;
69714;SDS011;56981;53.532;49.398;2023-05-15T11:59:02;4.55;;;2.72;;
69714;SDS011;56981;53.532;49.398;2023-05-15T12:01:42;4.10;;;2.80;;
69714;SDS011;56981;53.532;49.398;2023-05-15T12:04:17;9.50;;;3.90;;
69714;SDS011;56981;53.532;49.398;2023-05-15T12:06:48;3.00;;;2.70;;
69714;SDS011;56981;53.532;49.398;2023-05-15T12:09:20;7.28;;;2.55;;
69714;SDS011;56981;53.532;49.398;2023-05-15T12:11:56;5.72;;;2.90;;
69714;SDS011;56981;53.532;49.398;2023-05-15T12:14:31;2.45;;;2.25;;
69714;SDS011;56981;53.532;49.398;2023-05-15T12:17:03;3.70;;;2.30;;
69714;SDS011;56981;53.532;49.398;2023-05-15T12:19:35;2.20;;;2.00;;
69714;SDS011;56981;53.532;49.398;2023-05-15T12:22:08;8.88;;;6.15;;
69714;SDS011;56981;53.532;49.398;2023-05-15T12:24:39;4.20;;;2.45;;
69714;SDS011;56981;53.532;49.398;2023-05-15T12:27:12;4.82;;;2.53;;
69714;SDS011;56981;53.532;49.398;2023-05-15T12:29:43;3.55;;;2.60;;
69714;SDS011;56981;53.532;49.398;2023-05-15T12:32:15;3.00;;;2.72;;
69714;SDS011;56981;53.532;49.398;2023-05-15T12:34:46;2.90;;;2.60;;
69714;SDS011;56981;53.532;49.398;2023-05-15T12:37:18;4.25;;;2.00;;
69714;SDS011;56981;53.532;49.398;2023-05-15T12:39:53;6.28;;;2.10;;
69714;SDS011;56981;53.532;49.398;2023-05-15T12:42:26;2.63;;;2.10;;
69714;SDS011;56981;53.532;49.398;2023-05-15T12:44:57;3.13;;;2.05;;
69714;SDS011;56981;53.532;49.398;2023-05-15T12:47:28;3.67;;;2.40;;
69714;SDS011;56981;53.532;49.398;2023-05-15T12:50:00;4.05;;;2.60;;
69714;SDS011;56981;53.532;49.398;2023-05-15T12:52:32;2.20;;;1.90;;
69714;SDS011;56981;53.532;49.398;2023-05-15T12:55:03;3.55;;;2.42;;
69714;SDS011;56981;53.532;49.398;2023-05-15T12:57:35;3.80;;;2.03;;
69714;SDS011;56981;53.532;49.398;2023-05-15T13:00:09;6.32;;;2.22;;
69714;SDS011;56981;53.532;49.398;2023-05-15T13:02:44;5.72;;;2.63;;
69714;SDS011;56981;53.532;49.398;2023-05-15T13:05:15;6.30;;;2.45;;
69714;SDS011;56981;53.532;49.398;2023-05-15T13:07:47;8.70;;;2.20;;
69714;SDS011;56981;53.532;49.398;2023-05-15T13:10:21;5.68;;;2.08;;
69714;SDS011;56981;53.532;49.398;2023-05-15T13:12:55;11.02;;;2.58;;
69714;SDS011;56981;53.532;49.398;2023-05-15T13:18:07;6.28;;;2.22;;
69714;SDS011;56981;53.532;49.398;2023-05-15T13:20:41;2.95;;;1.88;;
69714;SDS011;56981;53.532;49.398;2023-05-15T13:23:20;2.65;;;2.10;;
69714;SDS011;56981;53.532;49.398;2023-05-15T13:25:54;9.63;;;4.20;;
69714;SDS011;56981;53.532;49.398;2023-05-15T13:28:25;8.98;;;2.53;;
69714;SDS011;56981;53.532;49.398;2023-05-15T13:30:56;4.22;;;2.40;;
69714;SDS011;56981;53.532;49.398;2023-05-15T13:33:28;33.15;;;3.55;;
69714;SDS011;56981;53.532;49.398;2023-05-15T13:35:59;10.23;;;2.55;;
69714;SDS011;56981;53.532;49.398;2023-05-15T13:38:30;2.05;;;1.58;;
69714;SDS011;56981;53.532;49.398;2023-05-15T13:41:05;1.70;;;1.60;;
69714;SDS011;56981;53.532;49.398;2023-05-15T13:43:36;6.20;;;2.45;;
69714;SDS011;56981;53.532;49.398;2023-05-15T13:46:07;9.85;;;2.22;;
69714;SDS011;56981;53.532;49.398;2023-05-15T13:48:38;7.43;;;2.05;;
69714;SDS011;56981;53.532;49.398;2023-05-15T13:51:10;3.47;;;1.90;;
69714;SDS011;56981;53.532;49.398;2023-05-15T13:53:41;8.77;;;2.63;;
69714;SDS011;56981;53.532;49.398;2023-05-15T13:56:12;5.95;;;2.35;;
69714;SDS011;56981;53.532;49.398;2023-05-15T13:58:43;5.35;;;2.53;;
69714;SDS011;56981;53.532;49.398;2023-05-15T14:01:15;9.40;;;2.30;;
69714;SDS011;56981;53.532;49.398;2023-05-15T14:03:46;9.65;;;2.95;;
69714;SDS011;56981;53.532;49.398;2023-05-15T14:06:17;5.30;;;2.42;;
69714;SDS011;56981;53.532;49.398;2023-05-15T14:08:48;8.23;;;2.58;;
69714;SDS011;56981;53.532;49.398;2023-05-15T14:11:19;8.52;;;3.17;;
69714;SDS011;56981;53.532;49.398;2023-05-15T14:13:52;15.55;;;4.97;;
69714;SDS011;56981;53.532;49.398;2023-05-15T14:16:23;10.48;;;2.50;;
69714;SDS011;56981;53.532;49.398;2023-05-15T14:18:54;12.93;;;2.75;;
69714;SDS011;56981;53.532;49.398;2023-05-15T14:21:26;7.25;;;2.75;;
69714;SDS011;56981;53.532;49.398;2023-05-15T14:23:57;7.90;;;2.20;;
69714;SDS011;56981;53.532;49.398;2023-05-15T14:26:28;6.45;;;2.20;;
69714;SDS011;56981;53.532;49.398;2023-05-15T14:29:00;7.20;;;2.95;;
69714;SDS011;56981;53.532;49.398;2023-05-15T14:31:26;3.45;;;2.20;;
69714;SDS011;56981;53.532;49.398;2023-05-15T14:33:52;2.58;;;2.28;;
69714;SDS011;56981;53.532;49.398;2023-05-15T14:36:18;2.58;;;2.33;;
69714;SDS011;56981;53.532;49.398;2023-05-15T14:38:44;3.72;;;1.92;;
69714;SDS011;56981;53.532;49.398;2023-05-15T14:41:12;8.43;;;2.50;;
69714;SDS011;56981;53.532;49.398;2023-05-15T14:43:38;3.50;;;1.90;;
69714;SDS011;56981;53.532;49.398;2023-05-15T14:46:05;3.10;;;2.20;;
69714;SDS011;56981;53.532;49.398;2023-05-15T14:48:31;4.68;;;1.73;;
69714;SDS011;56981;53.532;49.398;2023-05-15T14:50:58;2.95;;;1.90;;
69714;SDS011;56981;53.532;49.398;2023-05-15T14:53:25;1.90;;;1.80;;
69714;SDS011;56981;53.532;49.398;2023-05-15T14:55:53;3.28;;;2.10;;
69714;SDS011;56981;53.532;49.398;2023-05-15T14:58:19;4.22;;;2.28;;
69714;SDS011;56981;53.532;49.398;2023-05-15T15:00:45;3.88;;;2.42;;
69714;SDS011;56981;53.532;49.398;2023-05-15T15:03:12;3.35;;;2.40;;
69714;SDS011;56981;53.532;49.398;2023-05-15T15:05:38;6.60;;;3.40;;
69714;SDS011;56981;53.532;49.398;2023-05-15T15:08:05;5.30;;;3.10;;
69714;SDS011;56981;53.532;49.398;2023-05-15T15:10:33;4.20;;;3.00;;